Delta Virtual Airport Information Service

Bengaluru Kempegowda International Airport

ICAO: VOBL Country: India
Latitude: 13.1989 Longitude: 77.7056
Latest Arrival : BAW119 (EGLL-VOBL) Latest Departure : DLH755 (VOBL-EDDF)


WX CaptureLIVE
Data provided by noaa.gov | Fetched at 07:27:17

METAR : VOBL 301300Z 04006KT 9999 SCT015 22/20 Q1017 NOSIG

TAF : VOBL 301100Z 3012/0118 06005KT 6000 SCT015 BECMG 3020/3021 5000 BR SCT008 SCT012 BECMG 3023/3024 3000 BR SCT005 SCT012 TEMPO 0100/0103 1000 MIFG BKN005 SCT012 BECMG 0104/0105 6000 SCT015


Runway Data for VOBL
Data provided by openaviationdata.com

Runway ID Mag Var Hdg Length Elevation Surface ILS Freq ILS Id ILS Slope

Bengaluru Kempegowda International Airport, India
Use only for reference purposes



Not for navigational purposes.